Flores (flores Isl.), Flores Airport (LPFL)

NameFlores Airport
CityFlores (flores Isl.)
CountryPortugal
ICAOLPFL
IATAFLW
Altitude34 m
CoordinatesGoogle Map
Live Air TrafficLiveATC.net
METARLPFL 261800Z VRB03KT 9999 FEW013 BKN029 21/19 Q1026
2019-05-26 18:00:00 Wind: North (0°) 1.54 m/s - Visibility: > 10000 m - Temperature: 21 °C - Dew point: 19 °C - Humidity: 88.4% - Pressure: 1026 hPa
Statistics

The table below shows the detailed information of all flights to/from Flores (flores Isl.), Flores Airport (LPFL).